createdAt,value
2018-11-21T00:01:22.494Z,34.37
2018-11-21T00:04:12.104Z,38.37
2018-11-21T00:07:01.511Z,44.27
2018-11-21T00:09:50.583Z,37.63
2018-11-21T00:12:40.296Z,41.70
2018-11-21T00:15:29.718Z,38.27
2018-11-21T00:18:19.213Z,34.83
2018-11-21T00:21:08.938Z,34.97
2018-11-21T00:23:58.317Z,37.33
2018-11-21T00:26:47.765Z,36.33
2018-11-21T00:29:37.459Z,39.97
2018-11-21T00:32:27.581Z,29.70
2018-11-21T00:35:17.174Z,33.63
2018-11-21T00:38:06.819Z,36.17
2018-11-21T00:40:56.710Z,30.27
2018-11-21T00:43:46.678Z,34.40
2018-11-21T00:46:36.590Z,37.07
2018-11-21T00:49:25.894Z,38.70
2018-11-21T00:52:15.338Z,36.83
2018-11-21T00:55:04.475Z,31.37
2018-11-21T00:57:53.613Z,34.23
2018-11-21T01:00:42.771Z,34.20
2018-11-21T01:03:32.460Z,34.33
2018-11-21T01:06:21.956Z,36.00
2018-11-21T01:09:11.539Z,34.20
2018-11-21T01:12:01.153Z,34.33
2018-11-21T01:14:50.766Z,34.80
2018-11-21T01:17:40.370Z,31.67
2018-11-21T01:20:29.912Z,36.37
2018-11-21T01:23:19.791Z,31.00
2018-11-21T01:26:09.749Z,38.30
2018-11-21T01:28:59.031Z,37.13
2018-11-21T01:31:48.503Z,47.37
2018-11-21T01:34:37.611Z,39.83
2018-11-21T01:37:27.063Z,34.90
2018-11-21T01:40:16.478Z,30.70
2018-11-21T01:43:05.949Z,38.33
2018-11-21T01:45:55.447Z,32.60
2018-11-21T01:48:45.137Z,30.40
2018-11-21T01:51:34.600Z,33.10
2018-11-21T01:54:23.963Z,38.53
2018-11-21T01:57:13.550Z,36.63
2018-11-21T02:00:03.614Z,34.80
2018-11-21T02:02:53.221Z,33.43
2018-11-21T02:05:43.089Z,38.83
2018-11-21T02:08:32.525Z,28.87
2018-11-21T02:11:22.146Z,36.93
2018-11-21T02:14:11.333Z,38.90
2018-11-21T02:17:00.589Z,41.30
2018-11-21T02:19:49.919Z,47.13
2018-11-21T02:22:39.201Z,52.03
2018-11-21T02:25:28.979Z,49.43
2018-11-21T02:28:18.639Z,74.13
2018-11-21T02:31:08.096Z,86.03
2018-11-21T02:33:57.320Z,66.03
2018-11-21T02:36:46.627Z,67.17
2018-11-21T02:39:36.130Z,70.57
2018-11-21T02:42:25.667Z,59.80
2018-11-21T02:45:15.096Z,45.83
2018-11-21T02:48:04.483Z,40.73
2018-11-21T02:50:53.738Z,44.60
2018-11-21T02:53:43.440Z,54.03
2018-11-21T02:57:10.148Z,69.43
2018-11-21T03:00:05.189Z,38.43
2018-11-21T03:02:54.628Z,29.60
2018-11-21T03:05:43.970Z,8.03
2018-11-21T03:08:33.397Z,9.80
2018-11-21T03:11:22.983Z,9.33
2018-11-21T03:14:12.729Z,11.83
2018-11-21T03:17:02.564Z,11.63
2018-11-21T03:19:52.059Z,15.27
2018-11-21T03:22:41.575Z,16.00
2018-11-21T03:25:30.992Z,15.73
2018-11-21T03:28:20.710Z,13.57
2018-11-21T03:31:11.016Z,9.57
2018-11-21T03:34:00.361Z,9.50
2018-11-21T03:36:51.174Z,11.90
2018-11-21T03:39:40.547Z,9.10
2018-11-21T03:42:30.055Z,10.33
2018-11-21T03:45:21.595Z,14.50
2018-11-21T03:48:10.861Z,24.50
2018-11-21T03:51:00.263Z,16.20
2018-11-21T03:53:50.157Z,11.60
2018-11-21T03:56:40.306Z,12.77
2018-11-21T03:59:31.582Z,18.83
2018-11-21T04:02:21.052Z,27.83
2018-11-21T04:05:11.170Z,16.50
2018-11-21T04:08:00.736Z,23.53
2018-11-21T04:10:50.429Z,21.20
2018-11-21T04:13:40.089Z,20.73
2018-11-21T04:16:29.994Z,17.27
2018-11-21T04:19:19.437Z,14.60
2018-11-21T04:22:09.076Z,12.07
2018-11-21T04:24:58.627Z,13.83
2018-11-21T04:27:47.840Z,11.73
2018-11-21T04:30:37.533Z,16.23
2018-11-21T04:33:27.090Z,14.00
2018-11-21T04:36:19.494Z,14.57
2018-11-21T04:39:10.529Z,14.97
2018-11-21T04:42:00.408Z,13.67
2018-11-21T04:44:49.843Z,14.30
2018-11-21T04:47:41.020Z,12.13
2018-11-21T04:50:30.859Z,16.47
2018-11-21T04:53:20.289Z,13.27
2018-11-21T04:56:09.761Z,12.20
2018-11-21T04:58:59.205Z,18.63
2018-11-21T05:01:48.600Z,9.97
2018-11-21T05:04:38.070Z,11.40
2018-11-21T05:07:27.301Z,12.23
2018-11-21T05:10:16.514Z,14.47
2018-11-21T05:13:05.906Z,10.50
2018-11-21T05:15:55.459Z,9.37
2018-11-21T05:18:45.176Z,9.83
2018-11-21T05:21:34.544Z,12.33
2018-11-21T05:24:23.471Z,11.53
2018-11-21T05:27:13.245Z,10.90
2018-11-21T05:30:02.716Z,14.43
2018-11-21T05:32:52.026Z,7.93
2018-11-21T05:35:42.502Z,11.20
2018-11-21T05:38:31.978Z,12.13
2018-11-21T05:41:21.588Z,10.37
2018-11-21T05:44:11.018Z,14.03
2018-11-21T05:47:00.665Z,10.07
2018-11-21T05:49:49.819Z,10.27
2018-11-21T05:52:39.594Z,13.03
2018-11-21T05:55:29.108Z,7.53
2018-11-21T05:58:19.085Z,10.33
2018-11-21T06:01:08.976Z,10.67
2018-11-21T06:03:58.188Z,14.33
2018-11-21T06:06:47.486Z,9.67
2018-11-21T06:09:37.200Z,11.07
2018-11-21T06:12:27.017Z,10.43
2018-11-21T06:15:16.382Z,9.60
2018-11-21T06:18:06.537Z,12.07
2018-11-21T06:20:56.026Z,9.03
2018-11-21T06:23:45.336Z,10.97
2018-11-21T06:26:34.433Z,11.80
2018-11-21T06:29:23.872Z,10.00
2018-11-21T06:32:13.742Z,9.17
2018-11-21T06:35:03.525Z,7.00
2018-11-21T06:37:53.221Z,9.53
2018-11-21T06:40:42.948Z,7.80
2018-11-21T06:43:32.358Z,7.33
2018-11-21T06:46:21.538Z,9.00
2018-11-21T06:49:11.390Z,10.07
2018-11-21T06:52:00.679Z,6.60
2018-11-21T06:54:50.183Z,6.00
2018-11-21T06:57:39.784Z,8.53
2018-11-21T07:00:29.420Z,6.03
2018-11-21T07:03:19.850Z,6.58
2018-11-21T07:06:09.773Z,5.97
2018-11-21T07:08:59.569Z,9.78
2018-11-21T07:11:49.383Z,5.80
2018-11-21T07:14:39.264Z,5.17
2018-11-21T07:17:29.564Z,8.38
2018-11-21T07:20:20.070Z,6.60
2018-11-21T07:23:09.603Z,8.53
2018-11-21T07:25:59.053Z,6.50
2018-11-21T07:28:48.733Z,7.00
2018-11-21T07:31:38.130Z,8.47
2018-11-21T07:34:28.592Z,5.50
2018-11-21T07:37:18.836Z,5.47
2018-11-21T07:40:11.986Z,6.42
2018-11-21T07:43:01.866Z,6.22
2018-11-21T07:45:52.324Z,9.18
2018-11-21T07:48:42.473Z,4.80
2018-11-21T07:51:32.669Z,9.55
2018-11-21T07:54:22.838Z,6.40
2018-11-21T07:57:39.687Z,8.63
2018-11-21T08:01:05.787Z,6.50
2018-11-21T08:04:12.934Z,6.33
2018-11-21T08:07:15.489Z,6.92
2018-11-21T08:10:31.628Z,5.05
2018-11-21T08:13:52.969Z,6.17
2018-11-21T08:17:20.102Z,7.03
2018-11-21T08:20:35.297Z,6.12
2018-11-21T08:23:42.985Z,6.12
2018-11-21T08:26:48.441Z,5.62
2018-11-21T08:29:38.232Z,5.47
2018-11-21T08:32:28.137Z,5.78
2018-11-21T08:35:18.303Z,6.12
2018-11-21T08:38:08.616Z,6.40
2018-11-21T08:40:58.746Z,7.05
2018-11-21T08:43:48.572Z,6.42
2018-11-21T08:46:38.749Z,8.08
2018-11-21T08:49:28.249Z,5.30
2018-11-21T08:52:17.448Z,4.73
2018-11-21T08:55:09.109Z,7.07
2018-11-21T08:57:58.403Z,6.70
2018-11-21T09:00:48.258Z,6.93
2018-11-21T09:03:38.018Z,8.73
2018-11-21T09:06:27.103Z,5.40
2018-11-21T09:09:16.484Z,5.23
2018-11-21T09:12:08.706Z,6.13
2018-11-21T09:14:56.223Z,5.20
2018-11-21T09:17:46.508Z,4.50
2018-11-21T09:20:36.200Z,3.83
2018-11-21T09:23:25.860Z,5.17
2018-11-21T09:26:15.323Z,5.67
2018-11-21T09:29:04.691Z,6.37
2018-11-21T09:31:54.489Z,5.50
2018-11-21T09:34:44.283Z,4.57
2018-11-21T09:37:33.945Z,7.40
2018-11-21T09:40:24.358Z,7.23
2018-11-21T09:43:13.971Z,9.03
2018-11-21T09:46:03.606Z,6.37
2018-11-21T09:48:52.954Z,7.90
2018-11-21T09:51:42.261Z,7.33
2018-11-21T09:54:32.114Z,8.17
2018-11-21T09:57:21.720Z,6.40
2018-11-21T10:00:49.122Z,4.43
2018-11-21T10:03:39.571Z,6.93
2018-11-21T10:06:31.759Z,4.57
2018-11-21T10:10:14.632Z,6.10
2018-11-21T10:13:07.045Z,4.93
2018-11-21T10:16:01.102Z,3.53
2018-11-21T10:18:53.758Z,5.27
2018-11-21T10:21:45.873Z,3.80
2018-11-21T10:24:38.484Z,7.73
2018-11-21T10:27:30.500Z,3.90
2018-11-21T10:30:23.115Z,9.10
2018-11-21T10:33:17.481Z,8.93
2018-11-21T10:36:10.224Z,6.83
2018-11-21T10:39:02.399Z,4.60
2018-11-21T10:41:55.133Z,3.70
2018-11-21T10:44:47.351Z,4.97
2018-11-21T10:47:39.666Z,6.20
2018-11-21T10:50:32.096Z,6.47
2018-11-21T10:53:24.299Z,7.03
2018-11-21T10:56:16.664Z,6.87
2018-11-21T10:59:08.987Z,5.67
2018-11-21T11:02:18.412Z,4.67
2018-11-21T11:05:41.184Z,5.67
2018-11-21T11:08:53.230Z,2.97
2018-11-21T11:12:03.971Z,4.07
2018-11-21T11:15:14.524Z,4.70
2018-11-21T11:18:44.278Z,3.77
2018-11-21T11:21:50.996Z,4.40
2018-11-21T11:24:53.628Z,3.33
2018-11-21T11:28:22.190Z,3.80
2018-11-21T11:31:48.774Z,3.83
2018-11-21T11:35:01.068Z,3.63
2018-11-21T11:38:10.601Z,5.13
2018-11-21T11:41:27.103Z,2.93
2018-11-21T11:44:37.440Z,3.17
2018-11-21T11:47:53.725Z,2.60
2018-11-21T11:51:06.038Z,3.33
2018-11-21T11:54:16.519Z,5.47
2018-11-21T11:57:36.432Z,6.97
2018-11-21T12:00:46.915Z,6.80
2018-11-21T12:04:09.354Z,6.27
2018-11-21T12:07:18.606Z,4.10
2018-11-21T12:10:38.192Z,2.80
2018-11-21T12:13:47.826Z,3.40
2018-11-21T12:17:13.207Z,2.93
2018-11-21T12:20:26.583Z,3.37
2018-11-21T12:23:36.563Z,2.57
2018-11-21T12:26:50.057Z,4.43
2018-11-21T12:29:58.867Z,3.90
2018-11-21T12:33:21.107Z,2.27
2018-11-21T12:36:37.518Z,2.70
2018-11-21T12:39:39.647Z,2.47
2018-11-21T12:42:49.246Z,3.87
2018-11-21T12:49:19.856Z,5.63
2018-11-21T12:52:29.311Z,4.90
2018-11-21T12:55:39.012Z,3.57
2018-11-21T12:58:44.168Z,3.60
2018-11-21T13:01:54.752Z,3.77
2018-11-21T13:05:06.276Z,5.03
2018-11-21T13:08:17.113Z,6.57
2018-11-21T13:11:23.954Z,4.23
2018-11-21T13:14:34.290Z,5.83
2018-11-21T13:17:56.260Z,3.87
2018-11-21T13:21:12.741Z,6.27
2018-11-21T13:24:23.176Z,5.63
2018-11-21T13:27:36.610Z,4.70
2018-11-21T13:30:40.737Z,6.43
2018-11-21T13:34:07.481Z,5.97
2018-11-21T13:37:33.329Z,3.27
2018-11-21T13:40:44.824Z,3.20
2018-11-21T13:43:44.305Z,4.73
2018-11-21T13:47:10.294Z,4.13
2018-11-21T13:50:19.683Z,3.33
2018-11-21T13:53:45.585Z,6.07
2018-11-21T13:56:38.360Z,3.47
2018-11-21T13:59:30.524Z,4.23
2018-11-21T14:02:22.801Z,4.53
2018-11-21T14:05:15.294Z,4.13
2018-11-21T14:08:07.362Z,3.47
2018-11-21T14:10:59.667Z,4.90
2018-11-21T14:13:51.773Z,3.07
2018-11-21T14:16:44.036Z,3.70
2018-11-21T14:19:36.252Z,4.27
2018-11-21T14:22:28.716Z,3.40
2018-11-21T14:25:20.730Z,4.40
2018-11-21T14:28:13.688Z,3.73
2018-11-21T14:31:05.790Z,2.97
2018-11-21T14:33:59.299Z,3.30
2018-11-21T14:36:51.512Z,4.17
2018-11-21T14:39:43.592Z,2.00
2018-11-21T14:42:35.846Z,2.33
2018-11-21T14:45:28.443Z,3.40
2018-11-21T14:48:20.875Z,3.87
2018-11-21T14:51:13.283Z,3.70
2018-11-21T14:54:05.910Z,6.20
2018-11-21T14:56:58.290Z,2.90
2018-11-21T14:59:50.689Z,3.87
2018-11-21T15:02:43.236Z,3.37
2018-11-21T15:05:35.507Z,3.70
2018-11-21T15:08:27.704Z,3.20
2018-11-21T15:11:20.049Z,6.37
2018-11-21T15:14:12.725Z,5.90
2018-11-21T15:17:05.071Z,3.40
2018-11-21T15:19:57.430Z,2.70
2018-11-21T15:22:49.607Z,5.07
2018-11-21T15:25:41.996Z,3.83
2018-11-21T15:28:34.250Z,4.67
2018-11-21T15:31:27.014Z,2.50
2018-11-21T15:34:19.112Z,4.30
2018-11-21T15:37:11.660Z,5.97
2018-11-21T15:40:03.877Z,3.47
2018-11-21T15:42:56.146Z,3.03
2018-11-21T15:45:48.302Z,3.93
2018-11-21T15:48:40.642Z,3.23
2018-11-21T15:51:33.276Z,3.57
2018-11-21T15:54:25.383Z,5.17
2018-11-21T15:57:17.726Z,3.23
2018-11-21T16:00:23.972Z,2.50
2018-11-21T16:03:16.166Z,4.13
2018-11-21T16:06:08.533Z,3.13
2018-11-21T16:09:00.960Z,4.33
2018-11-21T16:11:52.982Z,3.03
2018-11-21T16:14:45.313Z,2.80
2018-11-21T16:17:37.505Z,2.87
2018-11-21T16:20:31.714Z,4.83
2018-11-21T16:23:24.138Z,6.70
2018-11-21T16:26:16.121Z,3.33
2018-11-21T16:29:08.812Z,3.70
2018-11-21T16:32:01.350Z,3.77
2018-11-21T16:34:53.974Z,5.13
2018-11-21T16:37:46.188Z,5.20
2018-11-21T16:40:38.880Z,3.30
2018-11-21T16:43:31.205Z,4.33
2018-11-21T16:46:23.285Z,4.87
2018-11-21T16:49:15.767Z,4.00
2018-11-21T16:52:08.640Z,5.30
2018-11-21T16:55:00.797Z,2.83
2018-11-21T16:57:54.146Z,5.70
2018-11-21T17:00:46.455Z,4.47
2018-11-21T17:03:38.950Z,4.23
2018-11-21T17:06:31.352Z,3.93
2018-11-21T17:09:23.485Z,2.50
2018-11-21T17:12:16.616Z,2.70
2018-11-21T17:15:11.050Z,4.87
2018-11-21T17:18:02.998Z,3.40
2018-11-21T17:20:55.445Z,2.60
2018-11-21T17:23:47.749Z,2.43
2018-11-21T17:26:40.207Z,4.57
2018-11-21T17:29:32.461Z,2.47
2018-11-21T17:32:24.832Z,4.70
2018-11-21T17:35:17.885Z,3.10
2018-11-21T17:38:10.452Z,5.00
2018-11-21T17:41:02.721Z,4.27
2018-11-21T17:43:55.651Z,5.17
2018-11-21T17:46:47.799Z,3.10
2018-11-21T17:49:40.251Z,5.67
2018-11-21T17:52:32.476Z,2.77
2018-11-21T17:55:26.336Z,3.10
2018-11-21T17:58:19.197Z,4.47
2018-11-21T18:01:14.991Z,2.50
2018-11-21T18:04:07.794Z,2.20
2018-11-21T18:07:00.048Z,3.27
2018-11-21T18:09:52.199Z,4.27
2018-11-21T18:12:44.692Z,2.57
2018-11-21T18:15:36.993Z,3.63
2018-11-21T18:18:29.314Z,3.67
2018-11-21T18:21:21.712Z,5.03
2018-11-21T18:24:13.959Z,3.90
2018-11-21T18:27:06.163Z,2.40
2018-11-21T18:29:59.749Z,2.00
2018-11-21T18:32:52.290Z,4.97
2018-11-21T18:35:44.410Z,4.73
2018-11-21T18:38:36.578Z,2.70
2018-11-21T18:41:28.883Z,2.20
2018-11-21T18:44:21.059Z,3.63
2018-11-21T18:47:13.453Z,4.13
2018-11-21T18:50:08.028Z,3.53
2018-11-21T18:52:59.000Z,2.83
2018-11-21T18:55:53.915Z,3.03
2018-11-21T18:59:25.680Z,2.87
2018-11-21T19:02:17.983Z,2.30
2018-11-21T19:05:10.298Z,3.93
2018-11-21T19:08:04.496Z,2.63
2018-11-21T19:10:56.573Z,3.37
2018-11-21T19:13:48.852Z,2.73
2018-11-21T19:16:41.015Z,1.40
2018-11-21T19:19:32.941Z,2.77
2018-11-21T19:22:25.274Z,1.67
2018-11-21T19:25:17.516Z,3.77
2018-11-21T19:28:10.023Z,1.97
2018-11-21T19:31:02.115Z,1.80
2018-11-21T19:33:54.230Z,2.50
2018-11-21T19:36:46.418Z,2.13
2018-11-21T19:39:38.649Z,3.43
2018-11-21T19:42:30.925Z,1.77
2018-11-21T19:45:23.406Z,4.57
2018-11-21T19:48:15.587Z,3.93
2018-11-21T19:51:08.588Z,3.77
2018-11-21T19:54:00.949Z,1.30
2018-11-21T19:56:54.035Z,3.67
2018-11-21T19:59:46.291Z,3.17
2018-11-21T20:02:38.886Z,3.50
2018-11-21T20:05:33.237Z,3.93
2018-11-21T20:08:25.745Z,2.07
2018-11-21T20:11:17.690Z,3.07
2018-11-21T20:14:09.767Z,2.83
2018-11-21T20:17:01.895Z,1.93
2018-11-21T20:19:54.080Z,1.60
2018-11-21T20:22:46.649Z,1.87
2018-11-21T20:25:38.820Z,2.33
2018-11-21T20:28:31.756Z,2.53
2018-11-21T20:31:23.948Z,1.80
2018-11-21T20:34:16.227Z,2.03
2018-11-21T20:37:08.332Z,2.87
2018-11-21T20:40:00.758Z,1.77
2018-11-21T20:42:53.043Z,1.30
2018-11-21T20:45:45.268Z,3.70
2018-11-21T20:48:37.600Z,1.60
2018-11-21T20:51:29.832Z,3.27
2018-11-21T20:54:22.348Z,2.13
2018-11-21T20:57:14.599Z,2.67
2018-11-21T21:00:10.571Z,1.40
2018-11-21T21:03:02.413Z,1.63
2018-11-21T21:05:54.339Z,2.43
2018-11-21T21:08:46.366Z,2.33
2018-11-21T21:11:39.023Z,1.87
2018-11-21T21:14:31.528Z,2.77
2018-11-21T21:17:23.813Z,4.30
2018-11-21T21:20:18.109Z,2.60
2018-11-21T21:23:10.390Z,3.10
2018-11-21T21:26:02.413Z,1.90
2018-11-21T21:28:54.942Z,5.73
2018-11-21T21:31:47.353Z,3.20
2018-11-21T21:34:39.297Z,1.70
2018-11-21T21:37:31.500Z,4.83
2018-11-21T21:40:27.025Z,3.70
2018-11-21T21:43:19.773Z,2.97
2018-11-21T21:46:13.533Z,1.80
2018-11-21T21:49:05.829Z,1.03
2018-11-21T21:51:58.155Z,3.33
2018-11-21T21:54:50.455Z,3.80
2018-11-21T21:58:36.017Z,2.93
2018-11-21T22:01:28.250Z,0.83
2018-11-21T22:04:42.848Z,4.03
2018-11-21T22:12:16.776Z,1.17
2018-11-21T22:15:27.185Z,1.47
2018-11-21T22:18:19.511Z,2.30
2018-11-21T22:21:11.878Z,0.67
2018-11-21T22:24:04.298Z,2.47
2018-11-21T22:26:56.781Z,2.60
2018-11-21T22:29:49.539Z,1.37
2018-11-21T22:32:42.670Z,3.30
2018-11-21T22:35:38.073Z,2.10
2018-11-21T22:38:31.042Z,2.33
2018-11-21T22:41:22.714Z,2.07
2018-11-21T22:44:15.166Z,1.43
2018-11-21T22:47:07.483Z,2.50
2018-11-21T22:49:59.743Z,1.67
2018-11-21T22:52:52.320Z,1.60
2018-11-21T22:55:44.886Z,2.10
2018-11-21T22:58:37.325Z,2.27
2018-11-21T23:01:32.851Z,2.50
2018-11-21T23:04:25.340Z,2.50
2018-11-21T23:07:17.711Z,2.23
2018-11-21T23:10:11.776Z,2.27
2018-11-21T23:13:03.829Z,1.83
2018-11-21T23:15:56.251Z,1.40
2018-11-21T23:18:48.521Z,1.50
2018-11-21T23:21:40.996Z,2.50
2018-11-21T23:24:33.098Z,1.53
2018-11-21T23:27:25.345Z,1.10
2018-11-21T23:30:18.903Z,1.63
2018-11-21T23:33:11.330Z,1.10
2018-11-21T23:36:03.604Z,1.17
2018-11-21T23:38:55.709Z,1.40
2018-11-21T23:41:47.643Z,1.00
2018-11-21T23:44:40.244Z,1.73
2018-11-21T23:47:32.523Z,1.40
2018-11-21T23:50:25.072Z,0.90
2018-11-21T23:53:17.135Z,3.63
2018-11-21T23:56:09.507Z,0.90
2018-11-21T23:59:01.975Z,2.30
